Stations météo

réclame
Mon MeteoGroup
Sant Jaume, Espagne (8240): Température de l'air & dewpoint: 21.05.2018 07:00:00 - 27.05.2018 07:00:00 (CEST)Sant Jaume, Espagne (8240): Vitesse du vent & gusts: 21.05.2018 07:00:00 - 27.05.2018 07:00:00 (CEST)Sant Jaume, Espagne (8240): Direction du vent: 21.05.2018 07:00:00 - 27.05.2018 07:00:00 (CEST)Sant Jaume, Espagne (8240): Quantités de précipitations: 21.05.2018 07:00:00 - 27.05.2018 07:00:00 (CEST)
Date & Time tt [°C] td [°C] ff [km/h] ff [knt] fx [km/h] fx [knt] dd rr [mm]
27.05.2018 07:00:00 - - - - - - - -
27.05.2018 06:00:00 19,6 16,2 6 3 22 12 NE 0,0
27.05.2018 05:00:00 19,6 16,5 9 5 24 13 NE 0,0
27.05.2018 04:00:00 19,6 16,6 8 4 26 14 NE 0,0
27.05.2018 03:00:00 19,4 17,0 11 6 27 14 NE 0,0
27.05.2018 02:00:00 19,4 17,4 9 5 21 12 ENE -
27.05.2018 01:00:00 19,6 18,1 6 4 17 9 ENE 0,0
27.05.2018 00:00:00 19,5 18,0 6 4 16 9 ENE 0,0
26.05.2018 23:00:00 19,7 18,0 6 3 16 9 NE 0,0
26.05.2018 22:00:00 19,8 17,9 6 3 16 8 ENE 0,0
26.05.2018 21:00:00 19,7 17,9 6 3 15 8 ENE 0,0
26.05.2018 20:00:00 20,2 18,2 6 3 17 9 ENE -
26.05.2018 19:00:00 20,3 17,9 6 4 19 10 ENE 0,0
26.05.2018 18:00:00 20,7 17,5 6 4 21 12 E 0,0
26.05.2018 17:00:00 21,7 17,3 8 5 26 14 ENE 0,0
26.05.2018 16:00:00 21,2 17,8 8 5 26 14 E 0,0
26.05.2018 15:00:00 21,2 18,0 8 4 24 13 E 0,0
26.05.2018 14:00:00 21,3 18,1 11 6 24 13 E -
26.05.2018 13:00:00 21,3 18,3 9 5 26 14 E 0,0
26.05.2018 12:00:00 21,1 18,8 8 4 21 12 E 0,0
26.05.2018 11:00:00 21,3 18,3 6 3 16 9 E 0,0
26.05.2018 10:00:00 20,0 17,9 4 2 13 7 ENE 0,0
26.05.2018 09:00:00 19,2 18,0 4 2 16 9 E 0,0
26.05.2018 08:00:00 - - - - - - - -
26.05.2018 07:00:00 18,7 17,9 6 4 17 9 E 0,0
26.05.2018 06:00:00 18,8 18,2 5 3 17 9 E 0,0
26.05.2018 05:00:00 18,6 17,8 5 3 15 8 E 0,0
26.05.2018 04:00:00 18,7 17,7 5 3 15 8 E 0,0
26.05.2018 03:00:00 18,8 17,9 5 3 15 8 ENE 0,0
26.05.2018 02:00:00 19,2 18,2 4 2 14 7 E -
26.05.2018 01:00:00 19,2 18,0 4 2 13 7 E 0,0
26.05.2018 00:00:00 19,2 18,0 6 3 17 9 E 0,0
25.05.2018 23:00:00 19,2 18,0 6 3 16 9 E 0,0
25.05.2018 22:00:00 19,3 17,9 6 4 21 12 ENE 0,0
25.05.2018 21:00:00 19,3 17,8 8 5 25 13 ENE 0,0
25.05.2018 20:00:00 20,0 17,9 8 5 24 13 E -
25.05.2018 19:00:00 20,6 17,8 10 5 35 19 E 0,0
25.05.2018 18:00:00 21,0 18,0 11 6 35 19 E 0,0
25.05.2018 17:00:00 21,1 17,7 13 7 38 21 E 0,0
25.05.2018 16:00:00 21,4 17,6 13 7 32 17 E 0,0
25.05.2018 15:00:00 21,5 17,5 10 6 37 20 E 0,0
25.05.2018 14:00:00 22,4 17,9 11 6 31 17 E -
25.05.2018 13:00:00 22,0 16,7 12 7 31 17 ENE 0,0
25.05.2018 12:00:00 22,1 15,2 12 7 32 17 ENE 0,0
25.05.2018 11:00:00 21,8 14,7 14 8 34 18 NE 0,0
25.05.2018 10:00:00 21,0 14,4 16 9 35 19 NE 0,0
25.05.2018 09:00:00 20,5 14,1 15 8 34 18 NE 0,0
25.05.2018 08:00:00 19,6 15,1 8 4 26 14 NE -
25.05.2018 07:00:00 19,4 14,0 10 6 26 14 NE 0,0
25.05.2018 06:00:00 19,7 14,3 5 3 24 13 NE 0,0
25.05.2018 05:00:00 19,4 15,4 5 3 14 8 NE 0,0
25.05.2018 04:00:00 19,6 16,2 6 4 24 13 NE 0,0
25.05.2018 03:00:00 19,7 16,6 8 5 24 13 NE 0,0
25.05.2018 02:00:00 19,8 16,5 9 5 21 12 ENE -
25.05.2018 01:00:00 19,9 16,6 7 4 17 9 NE 0,0
25.05.2018 00:00:00 20,0 16,2 5 3 13 7 ENE 0,0
24.05.2018 23:00:00 20,0 14,8 3 2 11 6 NE 0,0
24.05.2018 22:00:00 20,4 17,2 5 3 11 6 NE 0,0
24.05.2018 21:00:00 20,8 17,8 4 2 12 7 E 0,0
24.05.2018 20:00:00 22,4 17,3 7 4 15 8 ESE -
24.05.2018 19:00:00 22,9 15,3 8 4 15 8 SE 0,0
24.05.2018 18:00:00 23,4 17,1 12 7 21 11 SE 0,0
24.05.2018 17:00:00 22,9 17,1 16 9 22 12 SE 0,0
24.05.2018 16:00:00 23,4 16,2 14 7 20 11 SE 0,0
24.05.2018 15:00:00 23,3 17,1 14 7 22 12 SE 0,0
24.05.2018 14:00:00 23,4 15,4 11 6 18 10 SE -
24.05.2018 13:00:00 22,5 16,0 7 4 16 9 ESE 0,0
24.05.2018 12:00:00 22,4 17,3 5 3 13 7 ENE 0,0
24.05.2018 11:00:00 21,4 17,0 1 1 9 5 N 0,0
24.05.2018 10:00:00 20,6 18,2 4 2 14 7 SSE 0,0
24.05.2018 09:00:00 19,4 18,1 7 4 10 6 SSE 0,0
24.05.2018 08:00:00 18,6 17,8 0 0 4 2 ENE -
24.05.2018 07:00:00 18,1 17,3 1 0 4 2 ENE 0,0
24.05.2018 06:00:00 17,9 17,1 0 0 0 0 N 0,0
24.05.2018 05:00:00 18,3 17,6 0 0 5 3 N 0,0
24.05.2018 04:00:00 18,3 17,5 0 0 5 3 N 0,0
24.05.2018 03:00:00 18,7 17,7 0 0 0 0 N 0,0
24.05.2018 02:00:00 18,8 17,9 0 0 8 5 N -
24.05.2018 01:00:00 19,1 17,9 8 4 11 6 ESE 0,0
24.05.2018 00:00:00 19,2 17,4 0 0 5 3 N 0,0
23.05.2018 23:00:00 19,6 17,5 2 1 14 7 SSW 0,0
23.05.2018 22:00:00 19,7 17,9 10 5 16 9 S 0,0
23.05.2018 21:00:00 20,0 17,9 13 7 16 9 S 0,0
23.05.2018 20:00:00 20,3 17,9 9 5 17 9 S -
23.05.2018 19:00:00 21,0 18,0 13 7 19 10 S 0,0
23.05.2018 18:00:00 20,9 17,5 14 8 22 12 S 0,0
23.05.2018 17:00:00 21,5 17,7 16 9 24 13 SSE 0,0
23.05.2018 16:00:00 21,9 18,1 14 8 26 14 SSE 0,0
23.05.2018 15:00:00 21,9 17,9 16 9 29 15 SSE 0,0
23.05.2018 14:00:00 22,2 17,5 15 8 25 13 SE -
23.05.2018 13:00:00 22,1 17,1 10 5 16 9 ESE 0,0
23.05.2018 12:00:00 21,5 16,9 10 5 15 8 SE 0,0
23.05.2018 11:00:00 20,7 16,7 5 3 9 5 SSE 0,0
23.05.2018 10:00:00 20,2 16,6 2 1 5 3 SE 0,0
23.05.2018 09:00:00 19,4 17,2 1 1 7 4 ENE 0,0
23.05.2018 08:00:00 18,6 17,9 1 1 5 3 ENE -
23.05.2018 07:00:00 17,7 17,2 3 1 3 2 N 0,0
23.05.2018 06:00:00 17,3 16,5 0 0 2 1 N 0,0
23.05.2018 05:00:00 17,4 16,7 1 1 4 2 NE 0,0
23.05.2018 04:00:00 17,8 17,1 0 0 4 2 N 0,0
23.05.2018 03:00:00 17,8 16,8 0 0 0 0 N 0,0
23.05.2018 02:00:00 18,4 17,4 3 2 7 4 ESE -
23.05.2018 01:00:00 18,6 17,5 0 0 5 3 N 0,0
23.05.2018 00:00:00 19,2 17,9 3 2 8 4 ESE 0,0
22.05.2018 23:00:00 19,4 17,9 6 4 10 6 ESE 0,0
22.05.2018 22:00:00 19,6 17,2 7 4 16 9 S 0,0
22.05.2018 21:00:00 20,2 17,8 14 7 24 13 S 0,0
22.05.2018 20:00:00 20,9 17,5 19 10 26 14 S -
22.05.2018 19:00:00 21,7 17,3 19 11 25 13 S 0,0
22.05.2018 18:00:00 23,1 17,1 19 11 30 16 S 0,0
22.05.2018 17:00:00 22,9 16,6 21 12 30 16 SW 0,0
22.05.2018 16:00:00 22,9 17,6 19 11 29 16 SSW 0,0
22.05.2018 15:00:00 22,3 17,9 18 10 25 13 S 0,0
22.05.2018 14:00:00 21,4 16,8 16 9 21 11 S -
22.05.2018 13:00:00 22,5 16,3 14 7 19 10 SSE 0,0
22.05.2018 12:00:00 22,0 15,1 10 5 14 8 SE 0,0
22.05.2018 11:00:00 21,0 15,5 5 3 8 5 SSE 0,0
22.05.2018 10:00:00 19,4 15,3 1 0 6 3 SE 0,0
22.05.2018 09:00:00 17,1 14,9 4 2 7 4 WSW 0,0
22.05.2018 08:00:00 16,4 15,3 0 0 7 4 N -
22.05.2018 07:00:00 16,2 15,3 1 0 7 4 NNW 0,0
22.05.2018 06:00:00 16,1 15,0 4 2 8 4 NW 0,0
22.05.2018 05:00:00 16,4 15,3 4 2 8 4 W 0,0
22.05.2018 04:00:00 16,7 15,5 4 2 8 4 W 0,0
22.05.2018 03:00:00 17,2 16,0 3 1 6 3 WNW 0,0
22.05.2018 02:00:00 17,6 16,5 3 2 7 4 SSW -
22.05.2018 01:00:00 17,9 16,4 3 1 7 4 SW 0,0
22.05.2018 00:00:00 18,2 16,4 8 4 10 6 SSE 0,0
21.05.2018 23:00:00 18,5 16,1 6 3 8 4 SSE 0,0
21.05.2018 22:00:00 18,6 16,0 6 3 10 5 S 0,0
21.05.2018 21:00:00 19,0 15,7 4 2 14 8 SSW 0,0
21.05.2018 20:00:00 19,3 16,0 10 6 16 9 SSE -
21.05.2018 19:00:00 20,3 15,7 13 7 21 12 S 0,0
21.05.2018 18:00:00 20,6 16,8 14 8 22 12 S 0,0
21.05.2018 17:00:00 20,3 16,7 14 8 25 14 SSE 0,0
21.05.2018 16:00:00 20,3 15,7 16 8 25 13 ESE 0,0
21.05.2018 15:00:00 21,2 15,7 9 5 22 12 ESE 0,0
21.05.2018 14:00:00 21,5 15,8 6 3 16 8 E -
21.05.2018 13:00:00 20,4 15,4 6 3 14 8 E 0,0
21.05.2018 12:00:00 19,9 15,5 4 2 13 7 E 0,0
21.05.2018 11:00:00 19,8 15,3 4 2 11 6 E 0,0
21.05.2018 10:00:00 19,0 15,9 2 1 9 5 E 0,0
21.05.2018 09:00:00 18,3 15,9 3 1 8 4 ENE 0,0
21.05.2018 08:00:00 17,1 15,6 0 0 5 3 NNW -
21.05.2018 07:00:00 16,4 15,3 2 1 6 3 WNW 0,0

tt = Température de l'air
td = dewpoint
ff = Vitesse du vent
fx = gusts
dd = Direction du vent
rr = Quantités de précipitations

stations d'obs. à proximité